createdAt,value
2018-01-02T00:01:52.464Z,4.15
2018-01-02T00:04:25.382Z,5.87
2018-01-02T00:06:52.986Z,4.62
2018-01-02T00:09:20.617Z,5.35
2018-01-02T00:11:48.233Z,3.40
2018-01-02T00:14:15.849Z,5.05
2018-01-02T00:16:48.997Z,4.43
2018-01-02T00:19:16.613Z,3.75
2018-01-02T00:21:44.257Z,5.07
2018-01-02T00:24:12.625Z,9.80
2018-01-02T00:26:41.740Z,4.78
2018-01-02T00:29:13.353Z,5.03
2018-01-02T00:31:40.965Z,6.60
2018-01-02T00:34:08.604Z,4.53
2018-01-02T00:36:36.213Z,4.70
2018-01-02T00:39:03.841Z,4.40
2018-01-02T00:41:37.124Z,5.75
2018-01-02T00:44:04.741Z,4.22
2018-01-02T00:46:32.388Z,4.70
2018-01-02T00:48:59.992Z,5.35
2018-01-02T00:51:27.608Z,4.80
2018-01-02T00:54:00.898Z,4.68
2018-01-02T00:56:28.509Z,4.10
2018-01-02T00:58:56.253Z,4.60
2018-01-02T01:01:23.866Z,3.30
2018-01-02T01:03:51.473Z,5.10
2018-01-02T01:06:19.888Z,4.60
2018-01-02T01:08:47.513Z,3.15
2018-01-02T01:11:15.161Z,3.47
2018-01-02T01:13:42.773Z,2.95
2018-01-02T01:16:11.164Z,3.33
2018-01-02T01:18:38.805Z,3.03
2018-01-02T01:21:06.426Z,3.12
2018-01-02T01:23:34.845Z,3.78
2018-01-02T01:26:02.520Z,5.65
2018-01-02T01:28:30.128Z,2.90
2018-01-02T01:30:57.768Z,3.28
2018-01-02T01:33:25.376Z,4.47
2018-01-02T01:35:53.803Z,4.93
2018-01-02T01:38:21.408Z,4.05
2018-01-02T01:40:49.023Z,2.97
2018-01-02T01:43:17.425Z,2.87
2018-01-02T01:45:45.037Z,5.62
2018-01-02T01:48:13.456Z,3.10
2018-01-02T01:50:41.064Z,2.45
2018-01-02T01:53:08.675Z,4.20
2018-01-02T01:55:36.316Z,2.65
2018-01-02T01:58:03.925Z,2.72
2018-01-02T02:00:31.569Z,2.62
2018-01-02T02:02:59.185Z,1.90
2018-01-02T02:05:27.565Z,3.70
2018-01-02T02:07:55.197Z,2.65
2018-01-02T02:10:22.816Z,3.25
2018-01-02T02:12:50.464Z,2.35
2018-01-02T02:15:18.081Z,2.20
2018-01-02T02:17:45.697Z,4.32
2018-01-02T02:20:13.328Z,2.45
2018-01-02T02:22:41.711Z,2.35
2018-01-02T02:25:09.365Z,2.12
2018-01-02T02:27:36.973Z,2.12
2018-01-02T02:30:05.431Z,2.95
2018-01-02T02:32:33.170Z,1.70
2018-01-02T02:35:00.780Z,1.73
2018-01-02T02:37:28.426Z,1.80
2018-01-02T02:39:56.050Z,3.87
2018-01-02T02:42:23.665Z,2.65
2018-01-02T02:44:51.305Z,1.65
2018-01-02T02:47:18.932Z,1.67
2018-01-02T02:49:46.560Z,1.77
2018-01-02T02:52:14.180Z,1.75
2018-01-02T02:54:41.793Z,2.10
2018-01-02T02:57:09.442Z,1.05
2018-01-02T02:59:37.062Z,2.10
2018-01-02T03:02:04.702Z,1.48
2018-01-02T03:04:32.304Z,1.30
2018-01-02T03:07:00.718Z,1.67
2018-01-02T03:09:28.365Z,1.20
2018-01-02T03:11:56.005Z,2.30
2018-01-02T03:14:23.649Z,1.90
2018-01-02T03:16:51.323Z,1.65
2018-01-02T03:19:18.921Z,1.37
2018-01-02T03:21:46.570Z,1.12
2018-01-02T03:24:14.262Z,1.05
2018-01-02T03:26:41.905Z,1.20
2018-01-02T03:29:09.537Z,2.17
2018-01-02T03:31:37.148Z,1.73
2018-01-02T03:34:04.820Z,1.35
2018-01-02T03:36:32.431Z,2.45
2018-01-02T03:39:00.068Z,3.50
2018-01-02T03:41:27.667Z,1.30
2018-01-02T03:43:57.850Z,1.80
2018-01-02T03:46:25.509Z,1.98
2018-01-02T03:48:53.110Z,1.48
2018-01-02T03:51:21.521Z,1.40
2018-01-02T03:53:49.131Z,2.78
2018-01-02T03:56:16.740Z,1.45
2018-01-02T03:58:44.373Z,1.27
2018-01-02T04:01:12.005Z,2.75
2018-01-02T04:03:39.644Z,1.10
2018-01-02T04:06:07.256Z,1.00
2018-01-02T04:08:34.869Z,1.60
2018-01-02T04:11:02.528Z,1.00
2018-01-02T04:13:30.139Z,0.98
2018-01-02T04:15:57.781Z,0.80
2018-01-02T04:18:25.388Z,1.00
2018-01-02T04:20:53.008Z,3.22
2018-01-02T04:23:20.750Z,1.10
2018-01-02T04:25:48.362Z,1.10
2018-01-02T04:28:16.006Z,1.25
2018-01-02T04:30:43.615Z,1.10
2018-01-02T04:33:11.993Z,2.25
2018-01-02T04:35:39.628Z,0.80
2018-01-02T04:38:08.054Z,1.23
2018-01-02T04:40:35.696Z,0.88
2018-01-02T04:43:03.309Z,1.02
2018-01-02T04:45:30.921Z,1.35
2018-01-02T04:47:59.338Z,0.80
2018-01-02T04:50:26.951Z,0.80
2018-01-02T04:52:54.597Z,0.90
2018-01-02T04:55:22.202Z,0.80
2018-01-02T04:57:49.809Z,0.73
2018-01-02T05:00:17.444Z,1.50
2018-01-02T05:02:45.059Z,0.80
2018-01-02T05:05:13.461Z,0.60
2018-01-02T05:07:41.069Z,1.10
2018-01-02T05:10:09.444Z,0.77
2018-01-02T05:12:37.853Z,0.70
2018-01-02T05:15:05.452Z,0.95
2018-01-02T05:17:33.885Z,1.12
2018-01-02T05:20:01.509Z,0.80
2018-01-02T05:22:29.116Z,0.70
2018-01-02T05:24:57.521Z,1.33
2018-01-02T05:27:25.128Z,0.80
2018-01-02T05:29:52.771Z,1.33
2018-01-02T05:32:21.164Z,0.70
2018-01-02T05:34:48.778Z,1.17
2018-01-02T05:37:17.173Z,1.20
2018-01-02T05:39:44.781Z,0.82
2018-01-02T05:42:13.191Z,1.05
2018-01-02T05:44:40.792Z,1.10
2018-01-02T05:47:09.157Z,0.80
2018-01-02T05:49:37.561Z,0.82
2018-01-02T05:52:05.168Z,0.85
2018-01-02T05:54:33.602Z,0.75
2018-01-02T05:57:01.208Z,1.12
2018-01-02T05:59:28.820Z,1.15
2018-01-02T06:01:57.333Z,1.62
2018-01-02T06:04:25.868Z,1.00
2018-01-02T06:06:53.505Z,1.30
2018-01-02T06:09:21.877Z,1.95
2018-01-02T06:11:50.250Z,0.70
2018-01-02T06:14:17.895Z,0.80
2018-01-02T06:16:45.505Z,0.85
2018-01-02T06:19:13.145Z,0.95
2018-01-02T06:21:40.750Z,1.12
2018-01-02T06:24:08.356Z,0.80
2018-01-02T06:26:36.768Z,1.10
2018-01-02T06:29:04.377Z,0.95
2018-01-02T06:31:32.009Z,1.30
2018-01-02T06:34:00.385Z,0.80
2018-01-02T06:36:27.993Z,1.10
2018-01-02T06:38:55.789Z,1.00
2018-01-02T06:41:23.404Z,0.88
2018-01-02T06:43:51.061Z,1.10
2018-01-02T06:46:19.436Z,1.05
2018-01-02T06:48:47.851Z,1.05
2018-01-02T06:51:15.529Z,1.75
2018-01-02T06:53:43.142Z,0.98
2018-01-02T06:56:10.782Z,1.50
2018-01-02T06:58:38.386Z,1.20
2018-01-02T07:01:06.757Z,1.50
2018-01-02T07:03:34.404Z,1.40
2018-01-02T07:06:02.024Z,1.40
2018-01-02T07:08:29.665Z,1.58
2018-01-02T07:10:57.289Z,2.05
2018-01-02T07:13:24.909Z,1.80
2018-01-02T07:15:52.557Z,2.25
2018-01-02T07:18:20.188Z,1.95
2018-01-02T07:20:47.836Z,2.15
2018-01-02T07:23:15.445Z,2.95
2018-01-02T07:25:43.065Z,2.35
2018-01-02T07:28:10.708Z,2.33
2018-01-02T07:30:38.323Z,1.95
2018-01-02T07:33:05.986Z,2.20
2018-01-02T07:35:33.670Z,2.45
2018-01-02T07:38:01.286Z,2.00
2018-01-02T07:40:29.067Z,3.10
2018-01-02T07:42:56.695Z,2.45
2018-01-02T07:45:24.339Z,2.00
2018-01-02T07:47:51.969Z,2.33
2018-01-02T07:50:19.577Z,2.25
2018-01-02T07:52:47.995Z,2.12
2018-01-02T07:55:15.614Z,2.60
2018-01-02T07:57:43.264Z,2.22
2018-01-02T08:00:10.925Z,2.55
2018-01-02T08:02:38.534Z,3.30
2018-01-02T08:05:06.182Z,2.40
2018-01-02T08:07:33.801Z,2.75
2018-01-02T08:10:01.545Z,3.70
2018-01-02T08:12:29.226Z,2.47
2018-01-02T08:14:56.912Z,3.58
2018-01-02T08:17:24.555Z,3.55
2018-01-02T08:19:52.167Z,2.83
2018-01-02T08:22:19.818Z,3.30
2018-01-02T08:24:47.470Z,4.40
2018-01-02T08:27:15.077Z,3.53
2018-01-02T08:29:42.737Z,3.67
2018-01-02T08:32:11.553Z,3.55
2018-01-02T08:34:39.234Z,3.35
2018-01-02T08:37:06.850Z,3.60
2018-01-02T08:39:34.453Z,3.20
2018-01-02T08:42:03.217Z,3.28
2018-01-02T08:44:31.591Z,2.80
2018-01-02T08:46:59.998Z,2.55
2018-01-02T08:49:27.653Z,3.42
2018-01-02T08:51:55.361Z,3.42
2018-01-02T08:54:23.003Z,2.80
2018-01-02T08:56:51.377Z,2.95
2018-01-02T08:59:19.121Z,3.10
2018-01-02T09:01:47.038Z,3.12
2018-01-02T09:04:14.650Z,3.45
2018-01-02T09:06:42.301Z,2.40
2018-01-02T09:09:09.926Z,3.53
2018-01-02T09:11:37.564Z,3.83
2018-01-02T09:14:11.007Z,3.90
2018-01-02T09:16:38.658Z,4.30
2018-01-02T09:19:07.061Z,3.80
2018-01-02T09:21:34.686Z,2.25
2018-01-02T09:24:03.091Z,2.75
2018-01-02T09:26:30.724Z,3.60
2018-01-02T09:28:58.375Z,4.05
2018-01-02T09:31:25.981Z,5.00
2018-01-02T09:33:54.375Z,4.95
2018-01-02T09:36:22.019Z,3.28
2018-01-02T09:38:49.625Z,4.30
2018-01-02T09:41:17.274Z,3.75
2018-01-02T09:43:44.895Z,4.40
2018-01-02T09:46:12.511Z,4.15
2018-01-02T09:48:40.171Z,4.12
2018-01-02T09:51:08.040Z,3.97
2018-01-02T09:53:35.749Z,3.83
2018-01-02T09:56:03.377Z,3.80
2018-01-02T09:58:31.761Z,4.20
2018-01-02T10:00:59.399Z,4.00
2018-01-02T10:03:27.034Z,3.58
2018-01-02T10:05:55.440Z,3.85
2018-01-02T10:08:23.074Z,3.00
2018-01-02T10:10:50.690Z,2.70
2018-01-02T10:13:19.109Z,2.58
2018-01-02T10:15:46.774Z,3.15
2018-01-02T10:18:14.541Z,2.80
2018-01-02T10:20:42.193Z,3.28
2018-01-02T10:23:10.574Z,2.87
2018-01-02T10:25:38.216Z,2.72
2018-01-02T10:28:05.845Z,2.90
2018-01-02T10:30:34.278Z,2.72
2018-01-02T10:33:01.890Z,3.47
2018-01-02T10:35:29.550Z,3.60
2018-01-02T10:37:57.304Z,2.80
2018-01-02T10:40:24.974Z,3.28
2018-01-02T10:42:52.977Z,3.50
2018-01-02T10:45:20.602Z,2.97
2018-01-02T10:47:49.015Z,3.15
2018-01-02T10:50:16.703Z,3.20
2018-01-02T10:52:45.151Z,2.85
2018-01-02T10:55:12.814Z,2.35
2018-01-02T10:57:40.445Z,2.85
2018-01-02T11:00:08.055Z,2.90
2018-01-02T11:02:35.723Z,3.30
2018-01-02T11:05:03.331Z,2.70
2018-01-02T11:07:30.999Z,2.60
2018-01-02T11:09:58.605Z,3.05
2018-01-02T11:12:32.609Z,3.00
2018-01-02T11:15:00.986Z,2.85
2018-01-02T11:17:28.698Z,3.75
2018-01-02T11:19:56.472Z,3.03
2018-01-02T11:22:24.169Z,2.87
2018-01-02T11:24:51.842Z,3.75
2018-01-02T11:27:19.453Z,3.40
2018-01-02T11:29:47.066Z,3.85
2018-01-02T11:32:15.498Z,4.05
2018-01-02T11:34:43.152Z,3.58
2018-01-02T11:37:10.800Z,4.97
2018-01-02T11:39:38.461Z,4.65
2018-01-02T11:42:06.892Z,4.32
2018-01-02T11:44:34.630Z,4.00
2018-01-02T11:47:02.277Z,3.03
2018-01-02T11:49:29.957Z,3.75
2018-01-02T11:51:58.372Z,4.37
2018-01-02T11:57:29.356Z,3.78
2018-01-02T11:59:57.770Z,5.20
2018-01-02T12:02:25.479Z,4.18
2018-01-02T12:04:53.089Z,3.78
2018-01-02T12:07:21.470Z,4.20
2018-01-02T12:09:49.101Z,4.15
2018-01-02T12:12:16.705Z,3.75
2018-01-02T12:14:44.350Z,3.83
2018-01-02T12:17:11.957Z,4.30
2018-01-02T12:19:39.577Z,3.80
2018-01-02T12:22:07.231Z,3.20
2018-01-02T12:24:35.635Z,3.62
2018-01-02T12:27:03.281Z,3.30
2018-01-02T12:29:30.893Z,3.42
2018-01-02T12:31:58.497Z,4.20
2018-01-02T12:34:26.137Z,3.15
2018-01-02T12:36:53.770Z,4.70
2018-01-02T12:39:21.421Z,3.83
2018-01-02T12:41:49.046Z,5.12
2018-01-02T12:44:17.432Z,4.70
2018-01-02T12:46:45.832Z,3.42
2018-01-02T12:49:13.447Z,4.07
2018-01-02T12:51:41.098Z,4.60
2018-01-02T12:54:08.709Z,3.45
2018-01-02T12:56:36.313Z,5.45
2018-01-02T12:59:04.723Z,4.03
2018-01-02T13:01:32.344Z,5.25
2018-01-02T13:03:59.997Z,8.13
2018-01-02T13:06:27.612Z,4.43
2018-01-02T13:08:55.236Z,5.93
2018-01-02T13:11:22.905Z,6.15
2018-01-02T13:13:50.518Z,7.05
2018-01-02T13:16:18.174Z,8.38
2018-01-02T13:18:45.797Z,6.07
2018-01-02T13:21:14.169Z,8.63
2018-01-02T13:23:41.805Z,6.15
2018-01-02T13:26:09.421Z,7.35
2018-01-02T13:28:37.117Z,5.00
2018-01-02T13:31:04.757Z,6.20
2018-01-02T13:33:32.378Z,8.05
2018-01-02T13:36:00.040Z,5.43
2018-01-02T13:38:28.412Z,8.63
2018-01-02T13:40:56.067Z,6.47
2018-01-02T13:43:23.684Z,6.40
2018-01-02T13:45:52.068Z,6.45
2018-01-02T13:48:20.476Z,6.03
2018-01-02T13:50:48.108Z,5.20
2018-01-02T13:53:15.773Z,6.07
2018-01-02T13:55:43.397Z,9.57
2018-01-02T13:58:11.013Z,7.25
2018-01-02T14:00:38.654Z,8.35
2018-01-02T14:03:06.265Z,7.82
2018-01-02T14:05:33.918Z,7.62
2018-01-02T14:08:01.528Z,7.10
2018-01-02T14:10:29.149Z,11.12
2018-01-02T14:12:56.792Z,8.18
2018-01-02T14:15:25.169Z,6.12
2018-01-02T14:17:52.817Z,6.00
2018-01-02T14:20:20.429Z,6.85
2018-01-02T14:22:48.060Z,9.90
2018-01-02T14:25:15.717Z,6.47
2018-01-02T14:27:43.334Z,9.00
2018-01-02T14:30:10.973Z,5.80
2018-01-02T14:32:38.578Z,5.85
2018-01-02T14:35:06.208Z,9.85
2018-01-02T14:37:33.853Z,6.80
2018-01-02T14:40:02.233Z,5.30
2018-01-02T14:42:29.889Z,6.75
2018-01-02T14:44:57.502Z,6.10
2018-01-02T14:47:25.882Z,7.55
2018-01-02T14:49:54.291Z,6.15
2018-01-02T14:52:21.903Z,6.62
2018-01-02T14:54:49.541Z,6.32
2018-01-02T14:57:17.165Z,6.95
2018-01-02T14:59:44.775Z,6.28
2018-01-02T15:02:13.189Z,9.05
2018-01-02T15:04:40.803Z,7.57
2018-01-02T15:07:08.454Z,5.93
2018-01-02T15:09:36.070Z,5.90
2018-01-02T15:12:03.717Z,6.65
2018-01-02T15:14:31.379Z,6.57
2018-01-02T15:16:59.026Z,6.45
2018-01-02T15:19:26.669Z,6.15
2018-01-02T15:21:54.525Z,7.30
2018-01-02T15:24:23.064Z,6.30
2018-01-02T15:26:56.642Z,7.15
2018-01-02T15:29:24.246Z,6.30
2018-01-02T15:31:52.656Z,8.10
2018-01-02T15:34:20.413Z,7.72
2018-01-02T15:36:48.800Z,8.52
2018-01-02T15:39:17.841Z,7.70
2018-01-02T15:41:45.460Z,6.57
2018-01-02T15:44:13.119Z,8.85
2018-01-02T15:46:41.501Z,7.55
2018-01-02T15:49:09.101Z,6.28
2018-01-02T15:51:37.683Z,5.95
2018-01-02T15:54:06.109Z,6.10
2018-01-02T15:56:35.453Z,8.20
2018-01-02T15:59:04.031Z,6.53
2018-01-02T16:01:31.633Z,6.72
2018-01-02T16:04:00.174Z,7.75
2018-01-02T16:06:27.998Z,10.70
2018-01-02T16:08:56.631Z,8.95
2018-01-02T16:11:25.223Z,7.85
2018-01-02T16:13:52.890Z,7.75
2018-01-02T16:16:20.545Z,7.45
2018-01-02T16:18:48.149Z,8.38
2018-01-02T16:21:15.789Z,9.18
2018-01-02T16:23:43.403Z,9.15
2018-01-02T16:26:11.041Z,8.85
2018-01-02T16:28:38.694Z,9.43
2018-01-02T16:31:07.072Z,8.35
2018-01-02T16:33:34.749Z,8.38
2018-01-02T16:36:03.162Z,9.20
2018-01-02T16:38:30.801Z,9.13
2018-01-02T16:40:58.480Z,10.15
2018-01-02T16:43:26.100Z,8.38
2018-01-02T16:45:53.745Z,10.40
2018-01-02T16:48:22.126Z,10.43
2018-01-02T16:50:49.765Z,17.33
2018-01-02T16:53:17.412Z,11.15
2018-01-02T16:55:45.034Z,9.40
2018-01-02T16:58:12.686Z,10.43
2018-01-02T17:00:40.330Z,7.32
2018-01-02T17:03:07.941Z,9.95
2018-01-02T17:05:35.585Z,8.95
2018-01-02T17:08:03.902Z,7.55
2018-01-02T17:10:31.541Z,9.13
2018-01-02T17:12:59.174Z,11.63
2018-01-02T17:15:26.793Z,9.57
2018-01-02T17:17:54.465Z,14.80
2018-01-02T17:20:22.078Z,9.68
2018-01-02T17:22:49.741Z,14.00
2018-01-02T17:25:17.365Z,8.35
2018-01-02T17:27:45.745Z,14.82
2018-01-02T17:30:13.386Z,9.35
2018-01-02T17:32:41.019Z,7.60
2018-01-02T17:35:08.671Z,7.80
2018-01-02T17:37:37.062Z,14.27
2018-01-02T17:40:05.458Z,7.90
2018-01-02T17:42:33.892Z,6.70
2018-01-02T17:45:01.523Z,7.12
2018-01-02T17:47:30.114Z,6.62
2018-01-02T17:49:57.814Z,7.70
2018-01-02T17:52:25.442Z,6.55
2018-01-02T17:54:53.106Z,6.75
2018-01-02T17:57:20.741Z,11.75
2018-01-02T17:59:48.414Z,5.78
2018-01-02T18:02:16.036Z,7.00
2018-01-02T18:04:43.825Z,6.95
2018-01-02T18:07:11.597Z,7.37
2018-01-02T18:09:39.225Z,8.10
2018-01-02T18:12:06.908Z,7.60
2018-01-02T18:14:34.531Z,7.78
2018-01-02T18:17:02.154Z,9.05
2018-01-02T18:19:30.057Z,7.95
2018-01-02T18:21:57.670Z,6.40
2018-01-02T18:24:25.357Z,7.20
2018-01-02T18:26:52.946Z,6.50
2018-01-02T18:29:20.950Z,4.47
2018-01-02T18:31:48.593Z,5.85
2018-01-02T18:34:16.995Z,7.70
2018-01-02T18:36:44.633Z,5.93
2018-01-02T18:39:12.278Z,8.10
2018-01-02T18:41:39.922Z,8.10
2018-01-02T18:44:07.622Z,6.90
2018-01-02T18:46:35.254Z,10.80
2018-01-02T18:49:02.951Z,13.95
2018-01-02T18:51:30.558Z,8.50
2018-01-02T18:53:58.192Z,10.40
2018-01-02T18:56:25.857Z,12.18
2018-01-02T18:58:53.466Z,10.52
2018-01-02T19:01:21.149Z,10.63
2018-01-02T19:03:48.773Z,10.27
2018-01-02T19:06:17.189Z,10.00
2018-01-02T19:08:44.830Z,7.43
2018-01-02T19:11:13.216Z,7.55
2018-01-02T19:13:40.893Z,6.90
2018-01-02T19:16:08.508Z,6.62
2018-01-02T19:18:36.122Z,8.25
2018-01-02T19:21:03.782Z,7.82
2018-01-02T19:23:31.395Z,7.68
2018-01-02T19:25:59.809Z,6.82
2018-01-02T19:28:27.413Z,6.70
2018-01-02T19:30:55.030Z,5.78
2018-01-02T19:33:23.433Z,7.10
2018-01-02T19:35:51.076Z,7.45
2018-01-02T19:38:18.724Z,6.93
2018-01-02T19:40:46.330Z,7.18
2018-01-02T19:43:13.942Z,6.03
2018-01-02T19:45:41.589Z,6.60
2018-01-02T19:48:09.205Z,10.82
2018-01-02T19:50:36.854Z,7.60
2018-01-02T19:53:05.242Z,10.20
2018-01-02T19:55:33.629Z,8.98
2018-01-02T19:58:02.055Z,12.02
2018-01-02T20:00:29.662Z,8.68
2018-01-02T20:02:57.321Z,7.65
2018-01-02T20:05:24.940Z,7.35
2018-01-02T20:07:53.327Z,10.15
2018-01-02T20:10:21.048Z,5.35
2018-01-02T20:12:48.674Z,9.00
2018-01-02T20:15:16.326Z,7.93
2018-01-02T20:17:43.935Z,8.05
2018-01-02T20:20:12.337Z,13.77
2018-01-02T20:22:40.034Z,32.78
2018-01-02T20:25:07.674Z,17.70
2018-01-02T20:27:35.333Z,7.37
2018-01-02T20:30:02.967Z,7.90
2018-01-02T20:32:30.603Z,9.73
2018-01-02T20:34:59.038Z,7.20
2018-01-02T20:37:26.660Z,6.35
2018-01-02T20:39:55.073Z,5.22
2018-01-02T20:42:22.688Z,5.05
2018-01-02T20:44:50.314Z,5.62
2018-01-02T20:47:17.966Z,4.97
2018-01-02T20:49:45.588Z,5.75
2018-01-02T20:52:13.244Z,6.12
2018-01-02T20:54:40.984Z,5.68
2018-01-02T20:57:08.606Z,5.62
2018-01-02T20:59:36.258Z,7.28
2018-01-02T21:02:03.932Z,5.70
2018-01-02T21:04:31.642Z,5.43
2018-01-02T21:06:59.266Z,4.80
2018-01-02T21:09:26.894Z,4.53
2018-01-02T21:11:54.550Z,5.65
2018-01-02T21:14:22.252Z,5.78
2018-01-02T21:16:49.897Z,5.35
2018-01-02T21:19:17.506Z,6.05
2018-01-02T21:21:45.132Z,6.55
2018-01-02T21:24:13.550Z,5.50
2018-01-02T21:26:41.157Z,5.00
2018-01-02T21:29:08.813Z,6.18
2018-01-02T21:31:36.433Z,7.12
2018-01-02T21:34:04.814Z,6.47
2018-01-02T21:36:32.590Z,8.63
2018-01-02T21:39:00.296Z,7.05
2018-01-02T21:41:27.986Z,6.65
2018-01-02T21:43:55.605Z,7.87
2018-01-02T21:46:23.863Z,9.50
2018-01-02T21:48:51.586Z,7.62
2018-01-02T21:51:19.969Z,7.65
2018-01-02T21:53:47.626Z,6.47
2018-01-02T21:56:15.251Z,5.00
2018-01-02T21:58:42.864Z,6.35
2018-01-02T22:01:10.512Z,7.80
2018-01-02T22:03:38.142Z,5.18
2018-01-02T22:06:05.786Z,6.43
2018-01-02T22:08:33.397Z,4.90
2018-01-02T22:11:01.039Z,6.82
2018-01-02T22:13:28.691Z,7.07
2018-01-02T22:15:56.320Z,6.10
2018-01-02T22:18:24.757Z,5.15
2018-01-02T22:20:52.385Z,5.93
2018-01-02T22:23:20.001Z,6.25
2018-01-02T22:25:47.650Z,5.20
2018-01-02T22:28:16.042Z,6.45
2018-01-02T22:30:44.458Z,5.50
2018-01-02T22:33:12.072Z,6.72
2018-01-02T22:35:39.674Z,5.20
2018-01-02T22:38:08.086Z,6.37
2018-01-02T22:40:35.689Z,5.10
2018-01-02T22:43:03.324Z,7.20
2018-01-02T22:45:30.994Z,5.87
2018-01-02T22:47:59.378Z,6.28
2018-01-02T22:50:27.794Z,4.90
2018-01-02T22:52:55.445Z,8.32
2018-01-02T22:55:23.201Z,6.32
2018-01-02T22:57:51.601Z,6.93
2018-01-02T23:00:19.241Z,7.30
2018-01-02T23:02:46.858Z,7.55
2018-01-02T23:05:15.231Z,8.43
2018-01-02T23:07:44.326Z,7.18
2018-01-02T23:10:11.943Z,8.20
2018-01-02T23:12:39.560Z,7.50
2018-01-02T23:15:07.211Z,7.12
2018-01-02T23:17:34.813Z,7.68
2018-01-02T23:20:02.445Z,7.95
2018-01-02T23:22:30.089Z,8.02
2018-01-02T23:24:57.698Z,5.87
2018-01-02T23:27:25.357Z,7.15
2018-01-02T23:29:53.014Z,6.22
2018-01-02T23:32:20.638Z,4.37
2018-01-02T23:34:48.293Z,5.60
2018-01-02T23:37:15.913Z,6.50
2018-01-02T23:39:43.570Z,5.10
2018-01-02T23:42:11.190Z,5.60
2018-01-02T23:44:38.823Z,3.33
2018-01-02T23:47:06.485Z,4.75
2018-01-02T23:49:34.104Z,3.30
2018-01-02T23:52:01.757Z,4.68
2018-01-02T23:54:29.394Z,4.95
2018-01-02T23:56:57.018Z,3.00
2018-01-02T23:59:24.660Z,3.15
